East Braintree, Massachusetts
Current Conditions -  °F | °C
As of 9:36 PM on Wednesday 22 Oct 2014 (Local Time) from KOWD Reporting Station
Thunderstorm Thunderstorm  
Wind Chill: 52°   Ceiling: 800
Heat Index: 52°   Visibility: 2mi
Dew Point: 50°   Wind: 25mph
Humidity: 93%   Direction: 30°NNE
Pressure: 29.81"   Gusts: 40mph
Location:  42.2036°N, 71.0017°W
Report Text: KOWD 230136Z 03022G35KT 2SM TSRA BR OVC008 11/10 A2981 RMK AO2 PK WND 04037/0106 LTG DSNT SE AND SW TSB36 CIG 007V013 P0006 T01110100
Loading
Personal Weather Stations






























Interactive Weather Map New forecast layout! Learn more

10-Day Weather Forecast

Advertisements
Track Severe Weather on mobile